Time;durP1;ratioP1;P1;durP2;ratioP2;P2;SDS_P1;SDS_P2;PMS_P1;PMS_P2;Temp;Humidity;BMP_temperature;BMP_pressure;BME280_temperature;BME280_humidity;BME280_pressure;Samples;Min_cycle;Max_cycle;Signal;HPM_P1;HPM_P2
2022/03/05 00:00:17;;;;;;;55.17;39.00;;;4.00;71.20;;;;;;5076974;28;20405;-78
2022/03/05 00:02:43;;;;;;;63.53;41.08;;;4.00;70.90;;;;;;5074802;28;20053;-77
2022/03/05 00:05:10;;;;;;;57.38;40.40;;;4.00;70.50;;;;;;5073516;28;20089;-78
2022/03/05 00:07:36;;;;;;;54.83;38.70;;;4.00;69.50;;;;;;5077266;28;20036;-79
2022/03/05 00:10:03;;;;;;;55.65;38.33;;;4.10;68.70;;;;;;5074942;28;20043;-77
2022/03/05 00:12:30;;;;;;;58.42;39.63;;;4.10;68.60;;;;;;5072575;28;20041;-78
2022/03/05 00:14:56;;;;;;;55.08;39.15;;;4.10;68.50;;;;;;5074307;28;20028;-78
2022/03/05 00:17:22;;;;;;;53.33;37.92;;;4.10;68.20;;;;;;5074649;28;20039;-78
2022/03/05 00:19:48;;;;;;;54.60;38.90;;;4.10;68.30;;;;;;5076744;28;20028;-78
2022/03/05 00:22:14;;;;;;;51.88;38.58;;;4.10;68.70;;;;;;5075852;28;20604;-78
2022/03/05 00:24:40;;;;;;;52.20;37.35;;;4.00;68.80;;;;;;5074674;28;20032;-77
2022/03/05 00:27:06;;;;;;;53.97;39.47;;;4.00;68.90;;;;;;5073624;28;20380;-78
2022/03/05 00:29:32;;;;;;;57.47;39.40;;;4.00;69.20;;;;;;5079668;27;20047;-77
2022/03/05 00:31:57;;;;;;;54.88;38.88;;;3.90;69.70;;;;;;5073602;28;20047;-77
2022/03/05 00:34:23;;;;;;;58.33;39.55;;;3.90;70.00;;;;;;5079473;28;20089;-79
2022/03/05 00:36:49;;;;;;;60.00;41.15;;;3.90;70.20;;;;;;5077295;28;20039;-77
2022/03/05 00:39:15;;;;;;;58.08;40.70;;;3.80;70.40;;;;;;5066885;28;20037;-77
2022/03/05 00:41:41;;;;;;;58.30;41.15;;;3.70;70.60;;;;;;5076784;28;20056;-77
2022/03/05 00:44:07;;;;;;;55.20;39.65;;;3.60;71.00;;;;;;5067895;28;20040;-78
2022/03/05 00:46:33;;;;;;;60.08;42.03;;;3.60;71.10;;;;;;5077295;28;20062;-78
2022/03/05 00:48:58;;;;;;;54.55;39.90;;;3.60;71.30;;;;;;5073570;28;20040;-78
2022/03/05 00:51:25;;;;;;;60.38;41.83;;;3.60;71.50;;;;;;5066373;28;20491;-78
2022/03/05 00:53:50;;;;;;;62.72;45.35;;;3.50;71.70;;;;;;5074554;28;20035;-78
2022/03/05 00:56:16;;;;;;;62.70;44.67;;;3.50;72.00;;;;;;5072820;28;20059;-78
2022/03/05 00:58:42;;;;;;;58.22;42.45;;;3.40;72.00;;;;;;5068188;28;20454;-78
2022/03/05 01:01:08;;;;;;;58.08;42.40;;;3.40;72.20;;;;;;5063550;28;20044;-77
2022/03/05 01:03:33;;;;;;;55.58;40.70;;;3.40;72.40;;;;;;5068392;28;20162;-79
2022/03/05 01:05:59;;;;;;;59.20;42.60;;;3.40;72.70;;;;;;5068687;28;20102;-77
2022/03/05 01:08:26;;;;;;;56.22;39.90;;;3.40;72.70;;;;;;5074424;28;20751;-77
2022/03/05 01:10:52;;;;;;;60.72;41.08;;;3.30;72.70;;;;;;5066872;28;20036;-76
2022/03/05 01:13:17;;;;;;;56.35;38.38;;;3.30;72.70;;;;;;5071856;28;20474;-76
2022/03/05 01:15:43;;;;;;;53.05;38.85;;;3.20;72.80;;;;;;5074310;28;20040;-77
2022/03/05 01:18:09;;;;;;;54.90;40.22;;;3.20;72.70;;;;;;5076643;28;20040;-78
2022/03/05 01:20:34;;;;;;;52.30;37.50;;;3.20;72.60;;;;;;5065526;28;20492;-77
2022/03/05 01:23:00;;;;;;;59.15;38.47;;;3.10;72.60;;;;;;5067483;28;20040;-77
2022/03/05 01:25:26;;;;;;;57.65;39.28;;;3.10;72.80;;;;;;5080035;28;20032;-77
2022/03/05 01:27:52;;;;;;;57.95;40.30;;;3.10;72.80;;;;;;5068137;28;20059;-77
2022/03/05 01:30:17;;;;;;;59.70;40.92;;;3.10;72.70;;;;;;5071158;28;20132;-77
2022/03/05 01:32:43;;;;;;;59.88;40.45;;;3.10;72.60;;;;;;5065006;28;20044;-77
2022/03/05 01:35:09;;;;;;;58.17;40.65;;;3.00;72.70;;;;;;5069676;28;20340;-77
2022/03/05 01:37:35;;;;;;;56.92;40.13;;;2.90;72.90;;;;;;5079099;28;20436;-76
2022/03/05 01:40:00;;;;;;;61.05;41.42;;;2.90;72.70;;;;;;5072701;28;20036;-77
2022/03/05 01:42:26;;;;;;;57.50;39.15;;;2.90;72.70;;;;;;5083233;28;20037;-77
2022/03/05 01:44:52;;;;;;;53.75;39.40;;;2.80;72.90;;;;;;5074155;28;20459;-77
2022/03/05 01:47:19;;;;;;;58.95;40.45;;;2.80;72.90;;;;;;5083732;28;20035;-77
2022/03/05 01:49:45;;;;;;;60.45;40.78;;;2.80;73.10;;;;;;5072362;28;20109;-77
2022/03/05 01:52:11;;;;;;;59.08;39.80;;;2.70;73.10;;;;;;5083708;28;20148;-77
2022/03/05 01:54:37;;;;;;;58.17;39.42;;;2.70;73.20;;;;;;5075171;28;20395;-77
2022/03/05 01:57:03;;;;;;;52.55;37.47;;;2.70;73.50;;;;;;5085841;28;20054;-76
2022/03/05 01:59:29;;;;;;;58.15;41.10;;;2.70;73.50;;;;;;5063232;28;20403;-77
2022/03/05 02:01:55;;;;;;;63.75;43.50;;;2.70;73.30;;;;;;5067008;28;20119;-77
2022/03/05 02:04:21;;;;;;;57.33;41.17;;;2.70;73.30;;;;;;5077396;28;20486;-77
2022/03/05 02:06:47;;;;;;;58.78;41.42;;;2.60;73.60;;;;;;5077509;28;20038;-77
2022/03/05 02:09:13;;;;;;;58.88;40.40;;;2.60;73.60;;;;;;5077712;28;20513;-77
2022/03/05 02:11:39;;;;;;;54.03;39.08;;;2.60;73.50;;;;;;5073190;28;20079;-77
2022/03/05 02:14:05;;;;;;;57.67;40.10;;;2.60;73.70;;;;;;5077368;28;20432;-77
2022/03/05 02:16:31;;;;;;;59.17;40.08;;;2.60;73.80;;;;;;5075788;28;20454;-77
2022/03/05 02:18:57;;;;;;;59.83;40.75;;;2.60;74.00;;;;;;5086068;28;20339;-76
2022/03/05 02:21:25;;;;;;;55.95;38.20;;;2.40;74.30;;;;;;5079793;28;20044;-77
2022/03/05 02:23:51;;;;;;;56.42;39.20;;;2.50;74.40;;;;;;5083997;28;20522;-77
2022/03/05 02:26:17;;;;;;;56.45;39.75;;;2.50;74.60;;;;;;5084264;28;20036;-77
2022/03/05 02:28:43;;;;;;;59.90;39.67;;;2.50;74.60;;;;;;5075707;28;20036;-77
2022/03/05 02:31:08;;;;;;;57.83;40.53;;;2.40;74.80;;;;;;5066945;28;20044;-77
2022/03/05 02:33:34;;;;;;;57.33;39.70;;;2.40;74.80;;;;;;5075870;28;20119;-77
2022/03/05 02:36:01;;;;;;;57.10;39.55;;;2.40;74.80;;;;;;5075490;28;20040;-76
2022/03/05 02:38:27;;;;;;;60.72;42.75;;;2.40;74.90;;;;;;5073179;28;20044;-77
2022/03/05 02:40:53;;;;;;;60.10;41.72;;;2.40;74.90;;;;;;5078876;28;20481;-76
2022/03/05 02:43:21;;;;;;;59.13;42.08;;;2.40;75.00;;;;;;5084609;28;20825;-77
2022/03/05 02:45:47;;;;;;;59.72;42.00;;;2.30;75.00;;;;;;5083203;28;20588;-77
2022/03/05 02:48:15;;;;;;;59.85;40.88;;;2.30;75.30;;;;;;5080861;28;20032;-78
2022/03/05 02:50:42;;;;;;;58.60;40.08;;;2.20;75.40;;;;;;5071573;28;20584;-78
2022/03/05 02:53:08;;;;;;;61.53;42.38;;;2.20;75.40;;;;;;5079344;28;20122;-76
2022/03/05 02:55:35;;;;;;;57.72;39.58;;;2.10;75.50;;;;;;5075511;28;20038;-77
2022/03/05 02:58:01;;;;;;;58.42;40.80;;;2.10;75.70;;;;;;5110037;28;20028;-79
2022/03/05 03:00:27;;;;;;;59.20;41.33;;;2.10;75.80;;;;;;5098911;28;20058;-79
2022/03/05 03:02:53;;;;;;;61.05;41.85;;;2.10;75.80;;;;;;5101601;28;20036;-79
2022/03/05 03:05:21;;;;;;;57.75;39.25;;;2.10;75.80;;;;;;5110719;28;20040;-79
2022/03/05 03:07:48;;;;;;;53.58;38.03;;;2.10;75.80;;;;;;5087433;28;20036;-76
2022/03/05 03:10:15;;;;;;;63.63;41.05;;;2.20;75.60;;;;;;5083725;28;20036;-77
2022/03/05 03:12:42;;;;;;;58.65;40.42;;;2.10;75.50;;;;;;5087238;28;20060;-77
2022/03/05 03:15:11;;;;;;;56.22;39.47;;;2.10;75.50;;;;;;5077590;28;20076;-77
2022/03/05 03:17:44;;;;;;;58.53;40.40;;;2.10;75.60;;;;;;5080518;28;20044;-77
2022/03/05 03:20:12;;;;;;;56.63;39.42;;;2.10;75.50;;;;;;5066054;28;20046;-77
2022/03/05 03:22:38;;;;;;;57.53;38.30;;;2.10;75.30;;;;;;5072425;28;20036;-77
2022/03/05 03:25:05;;;;;;;55.13;37.80;;;2.10;75.10;;;;;;5069765;28;20384;-77
2022/03/05 03:27:30;;;;;;;58.13;39.00;;;2.10;75.10;;;;;;5070729;28;20528;-78
2022/03/05 03:29:56;;;;;;;56.75;38.13;;;2.10;75.00;;;;;;5072634;28;20043;-77
2022/03/05 03:32:22;;;;;;;55.85;38.90;;;2.10;75.00;;;;;;5064779;28;20055;-78
2022/03/05 03:34:48;;;;;;;54.25;36.72;;;2.10;74.60;;;;;;5075952;28;20530;-78
2022/03/05 03:37:13;;;;;;;54.67;37.22;;;2.10;74.40;;;;;;5079943;28;20094;-77
2022/03/05 03:39:39;;;;;;;51.65;36.65;;;2.10;74.20;;;;;;5094251;27;20047;-77
2022/03/05 03:42:05;;;;;;;50.40;36.83;;;2.10;74.10;;;;;;5074868;28;20043;-76
2022/03/05 03:44:30;;;;;;;55.63;37.80;;;2.10;74.20;;;;;;5082115;27;20454;-77
2022/03/05 03:46:57;;;;;;;53.72;36.47;;;2.10;74.30;;;;;;5069995;28;20635;-77
2022/03/05 03:49:23;;;;;;;52.85;35.65;;;2.10;74.10;;;;;;5082415;28;20038;-77
2022/03/05 03:51:48;;;;;;;55.40;37.35;;;2.10;73.80;;;;;;5074683;28;20045;-77
2022/03/05 03:54:14;;;;;;;51.05;36.35;;;2.10;73.50;;;;;;5069017;28;20066;-76
2022/03/05 03:56:40;;;;;;;50.17;37.38;;;2.10;73.70;;;;;;5086277;28;20040;-77
2022/03/05 03:59:05;;;;;;;59.15;37.53;;;2.00;73.70;;;;;;5082754;28;20081;-77
2022/03/05 04:01:31;;;;;;;53.22;36.65;;;2.00;73.70;;;;;;5082845;28;20621;-77
2022/03/05 04:03:57;;;;;;;54.28;38.00;;;2.00;73.80;;;;;;5075799;28;20470;-77
2022/03/05 04:06:22;;;;;;;54.20;36.35;;;1.90;74.20;;;;;;5085749;28;20429;-77
2022/03/05 04:08:48;;;;;;;53.47;35.67;;;1.80;74.60;;;;;;5074078;28;20047;-77
2022/03/05 04:11:19;;;;;;;55.92;38.38;;;1.80;75.00;;;;;;5080720;28;20036;-77
2022/03/05 04:13:46;;;;;;;52.60;36.20;;;1.70;75.20;;;;;;5079836;28;20089;-77
2022/03/05 04:16:12;;;;;;;55.22;38.90;;;1.60;76.20;;;;;;5079208;28;20121;-76
2022/03/05 04:18:37;;;;;;;52.83;37.25;;;1.60;76.60;;;;;;5078865;28;20475;-77
2022/03/05 04:21:04;;;;;;;51.83;35.90;;;1.60;77.20;;;;;;5085712;28;20122;-77
2022/03/05 04:23:30;;;;;;;56.92;37.00;;;1.60;77.80;;;;;;5075068;28;20039;-77
2022/03/05 04:25:56;;;;;;;57.72;38.53;;;1.60;78.30;;;;;;5085869;28;20036;-78
2022/03/05 04:28:21;;;;;;;53.97;36.80;;;1.50;78.70;;;;;;5079251;28;20040;-77
2022/03/05 04:30:47;;;;;;;53.97;36.45;;;1.40;79.00;;;;;;5072827;28;20654;-77
2022/03/05 04:33:13;;;;;;;48.88;35.40;;;1.50;79.40;;;;;;5082356;28;20044;-77
2022/03/05 04:35:38;;;;;;;51.40;36.22;;;1.50;79.30;;;;;;5074330;28;20047;-76
2022/03/05 04:38:04;;;;;;;52.47;37.30;;;1.40;79.50;;;;;;5081265;28;20047;-77
2022/03/05 04:40:30;;;;;;;54.25;36.08;;;1.40;79.90;;;;;;5083418;28;20028;-77
2022/03/05 04:42:56;;;;;;;54.58;37.75;;;1.30;80.20;;;;;;5079879;28;20031;-77
2022/03/05 04:45:21;;;;;;;55.38;36.70;;;1.30;80.20;;;;;;5079860;28;20062;-77
2022/03/05 04:47:47;;;;;;;53.00;37.83;;;1.30;80.30;;;;;;5080538;28;20036;-77
2022/03/05 04:50:13;;;;;;;51.88;35.22;;;1.30;80.40;;;;;;5080307;28;20028;-78
2022/03/05 04:52:39;;;;;;;56.47;38.13;;;1.30;80.40;;;;;;5079430;28;20093;-78
2022/03/05 04:55:07;;;;;;;56.15;37.33;;;1.30;80.30;;;;;;5078788;28;20040;-78
2022/03/05 04:57:32;;;;;;;58.13;38.13;;;1.20;80.10;;;;;;5078431;28;20155;-79
2022/03/05 04:59:58;;;;;;;56.45;38.03;;;1.20;79.80;;;;;;5071878;28;20036;-77
2022/03/05 05:02:24;;;;;;;53.30;36.05;;;1.20;79.70;;;;;;5078898;28;20411;-78
2022/03/05 05:04:50;;;;;;;55.03;39.17;;;1.10;79.50;;;;;;5083033;28;20089;-78
2022/03/05 05:07:15;;;;;;;54.45;37.35;;;1.10;79.00;;;;;;5080120;28;20032;-78
2022/03/05 05:09:42;;;;;;;57.45;38.72;;;1.10;79.10;;;;;;5082480;28;20036;-78
2022/03/05 05:12:08;;;;;;;52.13;35.88;;;1.10;78.60;;;;;;5088229;28;20508;-78
2022/03/05 05:14:34;;;;;;;56.63;37.67;;;1.10;78.40;;;;;;5076666;28;20460;-79
2022/03/05 05:17:00;;;;;;;56.58;38.58;;;1.00;78.50;;;;;;5084589;28;20123;-79
2022/03/05 05:19:27;;;;;;;54.25;36.20;;;1.10;78.60;;;;;;5086700;28;20052;-78
2022/03/05 05:22:04;;;;;;;50.17;36.45;;;1.00;78.70;;;;;;5085302;28;20372;-78
2022/03/05 05:24:33;;;;;;;54.95;38.05;;;1.00;78.80;;;;;;5087738;27;20433;-78
2022/03/05 05:26:59;;;;;;;49.45;35.65;;;0.90;78.70;;;;;;5083097;28;20537;-79
2022/03/05 05:29:25;;;;;;;52.35;36.83;;;0.90;78.80;;;;;;5098312;28;20071;-78
2022/03/05 05:31:52;;;;;;;53.72;35.15;;;0.90;78.90;;;;;;5089720;28;20055;-78
2022/03/05 05:34:18;;;;;;;58.00;37.40;;;0.90;78.70;;;;;;5087012;28;20043;-79
2022/03/05 05:36:44;;;;;;;53.78;37.78;;;0.80;78.80;;;;;;5074467;28;20044;-78
2022/03/05 05:39:11;;;;;;;56.10;37.10;;;0.90;78.90;;;;;;5084668;28;20042;-78
2022/03/05 05:41:38;;;;;;;56.72;38.53;;;0.80;78.90;;;;;;5081171;28;20036;-79
2022/03/05 05:44:07;;;;;;;57.03;37.65;;;0.80;79.00;;;;;;5089529;28;20048;-78
2022/03/05 05:46:32;;;;;;;61.67;40.42;;;0.80;79.00;;;;;;5080475;28;20551;-78
2022/03/05 05:48:58;;;;;;;58.40;39.90;;;0.80;79.10;;;;;;5085460;28;20046;-78
2022/03/05 05:51:27;;;;;;;54.72;37.75;;;0.80;78.80;;;;;;5084518;28;20248;-78
2022/03/05 05:53:53;;;;;;;55.47;37.45;;;0.70;78.60;;;;;;5078831;28;20533;-78
2022/03/05 05:56:19;;;;;;;57.50;39.15;;;0.60;78.80;;;;;;5081520;27;20974;-79
2022/03/05 05:58:45;;;;;;;56.03;38.78;;;0.60;78.80;;;;;;5077195;28;20499;-78
2022/03/05 06:01:11;;;;;;;57.15;38.13;;;0.60;79.00;;;;;;5090959;28;20031;-78
2022/03/05 06:03:37;;;;;;;59.33;40.35;;;0.60;79.40;;;;;;5078518;28;20105;-79
2022/03/05 06:06:02;;;;;;;55.45;38.35;;;0.50;79.80;;;;;;5089076;28;20036;-78
2022/03/05 06:08:28;;;;;;;56.20;37.75;;;0.50;80.00;;;;;;5072907;28;20070;-78
2022/03/05 06:10:55;;;;;;;54.78;38.40;;;0.50;80.70;;;;;;5083570;28;20127;-78
2022/03/05 06:13:21;;;;;;;56.80;38.88;;;0.50;80.70;;;;;;5079066;28;20044;-79
2022/03/05 06:15:47;;;;;;;59.83;39.42;;;0.50;80.80;;;;;;5079398;28;20401;-79
2022/03/05 06:18:13;;;;;;;56.53;38.88;;;0.40;80.90;;;;;;5078592;28;20074;-79
2022/03/05 06:20:38;;;;;;;63.35;39.58;;;0.40;81.10;;;;;;5069243;28;20108;-78
2022/03/05 06:23:04;;;;;;;58.10;36.50;;;0.50;81.30;;;;;;5079534;28;20059;-78
2022/03/05 06:25:30;;;;;;;76.97;49.40;;;0.50;81.40;;;;;;5088687;28;20039;-78
2022/03/05 06:27:56;;;;;;;97.28;59.08;;;0.60;81.30;;;;;;5075302;28;20450;-78
2022/03/05 06:30:22;;;;;;;105.82;68.78;;;0.50;81.20;;;;;;5065584;28;20052;-78
2022/03/05 06:32:48;;;;;;;87.65;57.55;;;0.50;81.20;;;;;;5084370;28;20040;-78
2022/03/05 06:35:14;;;;;;;87.80;56.30;;;0.50;81.40;;;;;;5069136;28;20040;-77
2022/03/05 06:37:40;;;;;;;63.55;41.55;;;0.50;81.40;;;;;;5079584;28;20166;-77
2022/03/05 06:40:10;;;;;;;59.50;39.85;;;0.60;81.20;;;;;;5068776;28;20044;-78
2022/03/05 06:42:36;;;;;;;54.05;38.53;;;0.60;81.10;;;;;;5089645;28;20042;-78
2022/03/05 06:45:02;;;;;;;60.28;40.10;;;0.60;80.70;;;;;;5069673;27;20052;-76
2022/03/05 06:47:30;;;;;;;58.17;38.75;;;0.60;80.60;;;;;;5075606;28;20039;-77
2022/03/05 06:49:56;;;;;;;53.95;38.30;;;0.70;80.40;;;;;;5074259;28;20035;-78
2022/03/05 06:52:22;;;;;;;56.88;39.53;;;0.60;80.30;;;;;;5071666;28;20043;-77
2022/03/05 06:54:48;;;;;;;59.03;41.00;;;0.60;80.20;;;;;;5071694;28;20039;-78
2022/03/05 06:57:13;;;;;;;61.72;42.92;;;0.70;80.10;;;;;;5074093;28;20081;-77
2022/03/05 06:59:39;;;;;;;62.83;40.58;;;0.70;80.20;;;;;;5085892;28;20056;-77
2022/03/05 07:02:05;;;;;;;58.63;39.55;;;0.80;80.20;;;;;;5079580;28;20487;-77
2022/03/05 07:04:31;;;;;;;57.80;39.75;;;0.80;80.20;;;;;;5080152;28;20055;-78
2022/03/05 07:06:56;;;;;;;57.05;39.25;;;0.80;80.30;;;;;;5077629;28;20028;-77
2022/03/05 07:09:22;;;;;;;58.88;39.22;;;1.00;80.30;;;;;;5075296;28;20036;-77
2022/03/05 07:11:47;;;;;;;58.47;39.67;;;1.10;80.10;;;;;;5087192;28;20466;-76
2022/03/05 07:14:13;;;;;;;61.28;41.70;;;1.10;79.90;;;;;;5081113;28;20189;-77
2022/03/05 07:16:39;;;;;;;61.78;41.08;;;1.20;79.90;;;;;;5078498;28;20123;-77
2022/03/05 07:19:04;;;;;;;60.35;42.03;;;1.10;80.00;;;;;;5073808;28;20403;-77
2022/03/05 07:21:30;;;;;;;60.25;41.45;;;1.30;80.10;;;;;;5071616;28;20040;-77
2022/03/05 07:23:58;;;;;;;59.85;40.05;;;1.30;80.10;;;;;;5068850;28;20112;-77
2022/03/05 07:26:24;;;;;;;62.30;42.95;;;1.40;80.20;;;;;;5077883;28;20039;-77
2022/03/05 07:28:50;;;;;;;61.83;43.40;;;1.50;80.40;;;;;;5071145;28;20036;-77
2022/03/05 07:31:16;;;;;;;63.20;42.80;;;1.50;80.60;;;;;;5063494;28;20129;-77
2022/03/05 07:33:42;;;;;;;59.55;42.78;;;1.60;80.90;;;;;;5072166;28;20143;-77
2022/03/05 07:36:07;;;;;;;62.45;44.00;;;1.60;80.90;;;;;;5072865;28;20036;-77
2022/03/05 07:38:34;;;;;;;62.80;41.88;;;1.70;80.90;;;;;;5072449;28;20052;-76
2022/03/05 07:41:00;;;;;;;65.13;43.30;;;1.80;80.90;;;;;;5073158;28;20069;-77
2022/03/05 07:43:25;;;;;;;59.50;41.95;;;1.90;80.80;;;;;;5078565;28;20043;-77
2022/03/05 07:45:51;;;;;;;66.90;46.28;;;2.00;80.60;;;;;;5075287;28;20445;-77
2022/03/05 07:48:21;;;;;;;71.35;47.08;;;2.00;80.30;;;;;;5079849;28;20036;-78
2022/03/05 07:50:48;;;;;;;66.70;46.30;;;2.10;80.30;;;;;;5076392;28;20539;-78
2022/03/05 07:53:15;;;;;;;66.15;47.97;;;2.20;80.30;;;;;;5078012;28;20040;-77
2022/03/05 07:55:41;;;;;;;66.90;47.58;;;2.20;80.40;;;;;;5078684;28;20067;-78
2022/03/05 07:58:06;;;;;;;68.32;47.40;;;2.30;80.60;;;;;;5077319;28;20035;-78
2022/03/05 08:00:32;;;;;;;68.18;48.35;;;2.30;80.50;;;;;;5077929;28;20391;-77
2022/03/05 08:02:58;;;;;;;62.88;47.15;;;2.40;80.60;;;;;;5080210;28;20483;-78
2022/03/05 08:05:23;;;;;;;61.60;45.78;;;2.40;80.40;;;;;;5078750;28;20728;-77
2022/03/05 08:07:49;;;;;;;60.65;45.92;;;2.50;80.50;;;;;;5078866;28;20511;-77
2022/03/05 08:10:15;;;;;;;60.30;44.95;;;2.60;80.50;;;;;;5074545;28;20031;-78
2022/03/05 08:12:42;;;;;;;61.00;42.58;;;2.60;80.70;;;;;;5078560;28;20106;-74
2022/03/05 08:15:09;;;;;;;75.18;45.05;;;2.70;80.30;;;;;;5076376;28;20036;-73
2022/03/05 08:17:35;;;;;;;96.65;48.83;;;2.90;80.80;;;;;;5080191;28;20028;-73
2022/03/05 08:20:01;;;;;;;77.38;46.33;;;3.00;80.40;;;;;;5075392;28;20036;-75
2022/03/05 08:22:27;;;;;;;62.50;41.88;;;3.10;80.10;;;;;;5073260;28;20154;-75
2022/03/05 08:24:52;;;;;;;67.88;45.38;;;3.30;79.40;;;;;;5077738;28;20032;-74
2022/03/05 08:27:18;;;;;;;67.90;45.65;;;3.50;79.10;;;;;;5076856;28;20466;-74
2022/03/05 08:29:44;;;;;;;60.88;43.85;;;3.60;78.50;;;;;;5085089;28;20055;-74
2022/03/05 08:32:10;;;;;;;58.95;43.22;;;3.80;78.50;;;;;;5080113;28;20040;-74
2022/03/05 08:34:35;;;;;;;58.80;43.20;;;4.00;77.50;;;;;;5087614;28;20020;-75
2022/03/05 08:37:01;;;;;;;57.10;42.78;;;4.20;77.10;;;;;;5077319;28;20047;-73
2022/03/05 08:39:28;;;;;;;58.88;41.97;;;4.50;76.00;;;;;;5098099;27;20043;-75
2022/03/05 08:41:54;;;;;;;60.13;42.67;;;4.60;75.20;;;;;;5075415;28;20125;-73
2022/03/05 08:44:20;;;;;;;54.00;41.90;;;4.80;74.90;;;;;;5073776;28;20510;-75
2022/03/05 08:46:46;;;;;;;54.63;39.92;;;5.00;75.40;;;;;;5075686;28;20364;-70
2022/03/05 08:49:13;;;;;;;57.55;41.03;;;5.20;74.00;;;;;;5078981;28;20325;-73
2022/03/05 08:51:39;;;;;;;50.30;39.65;;;5.20;73.20;;;;;;5076750;28;20038;-73
2022/03/05 08:54:05;;;;;;;54.35;40.83;;;5.40;72.30;;;;;;5075425;28;20036;-73
2022/03/05 08:56:31;;;;;;;48.15;37.83;;;5.60;71.60;;;;;;5075661;28;20115;-74
2022/03/05 08:58:57;;;;;;;53.15;38.60;;;5.80;70.50;;;;;;5077142;28;20054;-74
2022/03/05 09:01:23;;;;;;;51.65;39.33;;;6.00;69.10;;;;;;5074908;28;20066;-71
2022/03/05 09:03:49;;;;;;;51.22;39.55;;;6.10;68.40;;;;;;5076496;28;20085;-72
2022/03/05 09:06:15;;;;;;;54.92;40.97;;;6.30;67.00;;;;;;5071342;28;20024;-71
2022/03/05 09:08:41;;;;;;;49.40;38.35;;;6.50;66.20;;;;;;5079613;28;20043;-72
2022/03/05 09:11:06;;;;;;;49.50;38.45;;;6.60;66.20;;;;;;5073605;28;20466;-72
2022/03/05 09:13:32;;;;;;;53.10;38.75;;;6.90;65.90;;;;;;5078468;28;20036;-73
2022/03/05 09:15:58;;;;;;;53.67;41.38;;;7.10;65.40;;;;;;5080563;28;20398;-74
2022/03/05 09:18:24;;;;;;;52.60;39.70;;;7.20;63.90;;;;;;5077178;28;20410;-73
2022/03/05 09:20:49;;;;;;;53.55;40.90;;;7.40;64.00;;;;;;5077397;28;20396;-73
2022/03/05 09:23:15;;;;;;;51.22;39.72;;;7.60;63.70;;;;;;5076853;28;20077;-75
2022/03/05 09:25:42;;;;;;;51.83;41.00;;;7.70;62.40;;;;;;5073475;28;20600;-73
2022/03/05 09:28:08;;;;;;;53.58;40.17;;;7.90;61.80;;;;;;5069614;28;20047;-76
2022/03/05 09:30:34;;;;;;;52.75;40.08;;;7.80;61.70;;;;;;5074302;28;20044;-74
2022/03/05 09:33:00;;;;;;;52.70;39.85;;;8.00;62.40;;;;;;5078403;28;20052;-73
2022/03/05 09:35:26;;;;;;;50.38;41.33;;;8.20;61.80;;;;;;5076659;28;20024;-73
2022/03/05 09:37:52;;;;;;;50.17;40.75;;;8.50;61.50;;;;;;5067081;28;20395;-70
2022/03/05 09:40:18;;;;;;;55.78;40.80;;;8.60;59.90;;;;;;5073323;28;20340;-71
2022/03/05 09:42:45;;;;;;;50.30;40.13;;;8.70;61.10;;;;;;5068482;28;20051;-71
2022/03/05 09:45:14;;;;;;;50.97;41.10;;;8.90;61.00;;;;;;5075399;28;20508;-72
2022/03/05 09:47:42;;;;;;;52.47;41.60;;;9.00;59.40;;;;;;5074624;28;20039;-69
2022/03/05 09:50:08;;;;;;;52.20;40.03;;;9.00;59.90;;;;;;5079045;28;20055;-70
2022/03/05 09:52:34;;;;;;;53.58;41.15;;;9.10;60.30;;;;;;5076858;28;20066;-70
2022/03/05 09:55:01;;;;;;;48.75;40.20;;;9.30;59.50;;;;;;5075598;28;20300;-72
2022/03/05 09:57:27;;;;;;;48.72;40.55;;;9.40;58.60;;;;;;5072520;28;20028;-71
2022/03/05 09:59:53;;;;;;;52.92;40.80;;;9.40;58.90;;;;;;5081189;28;20032;-71
2022/03/05 10:02:19;;;;;;;50.65;40.17;;;9.50;59.90;;;;;;5082215;28;20039;-72
2022/03/05 10:04:45;;;;;;;49.13;39.63;;;9.40;60.00;;;;;;5077055;28;20044;-73
2022/03/05 10:07:16;;;;;;;49.05;39.15;;;9.50;59.70;;;;;;5078638;28;20482;-75
2022/03/05 10:09:44;;;;;;;50.42;39.15;;;9.50;58.80;;;;;;5066980;28;20040;-70
2022/03/05 10:12:27;;;;;;;48.00;39.88;;;9.60;59.80;;;;;;5072846;28;20059;-73
2022/03/05 10:15:11;;;;;;;48.03;37.65;;;9.60;60.50;;;;;;5070509;28;20169;-75
2022/03/05 10:17:51;;;;;;;50.55;39.15;;;9.70;57.80;;;;;;5074271;28;20548;-72
2022/03/05 10:20:19;;;;;;;49.60;38.13;;;9.80;58.80;;;;;;5067939;28;20516;-74
2022/03/05 10:22:58;;;;;;;46.67;37.20;;;10.00;58.50;;;;;;5072192;28;20047;-72
2022/03/05 10:25:31;;;;;;;51.25;38.75;;;10.10;57.20;;;;;;5072821;28;20170;-71
2022/03/05 10:28:01;;;;;;;48.63;38.08;;;10.10;57.20;;;;;;5076677;28;20036;-72
2022/03/05 10:30:41;;;;;;;45.92;34.92;;;10.20;56.30;;;;;;5072659;28;20370;-71
2022/03/05 10:33:08;;;;;;;45.88;34.95;;;10.30;54.10;;;;;;5070262;28;20502;-70
2022/03/05 10:35:35;;;;;;;46.15;36.70;;;10.30;54.10;;;;;;5065097;28;20032;-70
2022/03/05 10:38:01;;;;;;;45.50;35.30;;;10.50;55.70;;;;;;5068811;28;20040;-72
2022/03/05 10:40:29;;;;;;;49.03;36.05;;;10.50;52.40;;;;;;5078083;28;20027;-71
2022/03/05 10:42:59;;;;;;;48.63;39.50;;;10.70;53.20;;;;;;5073949;28;20469;-73
2022/03/05 10:45:29;;;;;;;51.78;38.65;;;10.80;56.40;;;;;;5075653;28;20028;-72
2022/03/05 10:47:55;;;;;;;47.40;37.75;;;10.90;54.80;;;;;;5074616;28;20036;-70
2022/03/05 10:50:27;;;;;;;48.40;36.50;;;10.90;54.50;;;;;;5081913;28;20545;-71
2022/03/05 10:53:01;;;;;;;44.40;33.17;;;10.80;51.80;;;;;;5069959;28;20392;-71
2022/03/05 10:55:35;;;;;;;46.75;34.97;;;10.60;52.00;;;;;;5078552;28;20051;-71
2022/03/05 10:58:04;;;;;;;42.60;32.22;;;10.70;51.50;;;;;;5072580;28;20040;-71
2022/03/05 11:00:31;;;;;;;50.03;34.75;;;10.80;51.00;;;;;;5077960;28;20036;-71
2022/03/05 11:03:02;;;;;;;43.33;32.67;;;10.80;50.70;;;;;;5072627;28;20095;-71
2022/03/05 11:05:28;;;;;;;42.63;32.50;;;11.10;48.70;;;;;;5068568;28;20047;-74
2022/03/05 11:07:55;;;;;;;44.20;30.85;;;11.20;48.30;;;;;;5071159;28;20551;-71
2022/03/05 11:10:25;;;;;;;40.47;29.40;;;11.50;47.10;;;;;;5069865;28;20089;-72
2022/03/05 11:12:52;;;;;;;40.72;29.48;;;11.30;44.50;;;;;;5066884;28;20048;-73
2022/03/05 11:15:22;;;;;;;40.75;30.27;;;11.30;45.60;;;;;;5067823;28;20410;-73
2022/03/05 11:17:48;;;;;;;38.03;28.90;;;11.50;45.90;;;;;;5068440;28;20055;-75
2022/03/05 11:20:15;;;;;;;40.53;30.65;;;11.60;43.60;;;;;;5069573;28;20025;-72
2022/03/05 11:22:44;;;;;;;38.53;30.17;;;11.40;43.80;;;;;;5073860;28;20051;-73
2022/03/05 11:25:15;;;;;;;37.80;28.48;;;11.30;44.90;;;;;;5072071;28;20064;-75
2022/03/05 11:28:01;;;;;;;43.78;30.75;;;11.20;44.20;;;;;;5071817;28;20276;-73
2022/03/05 11:30:28;;;;;;;39.50;29.65;;;11.40;44.90;;;;;;5068672;28;20040;-71
2022/03/05 11:32:54;;;;;;;42.33;32.03;;;11.20;45.00;;;;;;5073288;28;20526;-71
2022/03/05 11:35:28;;;;;;;40.92;29.85;;;11.40;45.80;;;;;;5070473;28;20048;-72
2022/03/05 11:37:54;;;;;;;41.63;30.10;;;11.60;45.20;;;;;;5072593;28;20032;-71
2022/03/05 11:40:41;;;;;;;38.88;28.95;;;11.80;44.10;;;;;;5070545;28;20394;-71
2022/03/05 11:43:25;;;;;;;36.17;26.58;;;11.50;42.10;;;;;;5075876;28;20630;-71
2022/03/05 11:46:01;;;;;;;37.38;27.48;;;11.10;42.00;;;;;;5070798;28;20039;-74
2022/03/05 11:48:29;;;;;;;37.03;26.73;;;11.30;41.10;;;;;;5070576;28;20040;-73
2022/03/05 11:50:57;;;;;;;42.45;29.77;;;11.40;40.30;;;;;;5074383;28;20041;-73
2022/03/05 11:53:23;;;;;;;39.83;29.52;;;11.60;41.90;;;;;;5086539;28;20406;-72
2022/03/05 11:55:49;;;;;;;40.17;29.35;;;11.70;42.80;;;;;;5071782;28;20059;-74
2022/03/05 11:58:16;;;;;;;37.67;28.98;;;12.10;42.90;;;;;;5069750;28;20024;-74
2022/03/05 12:00:44;;;;;;;38.22;29.80;;;12.30;42.00;;;;;;5072246;28;20319;-71
2022/03/05 12:03:20;;;;;;;39.63;29.10;;;12.50;41.40;;;;;;5088420;28;20078;-73
2022/03/05 12:05:46;;;;;;;39.10;28.02;;;12.30;41.80;;;;;;5067869;28;20052;-72
2022/03/05 12:08:34;;;;;;;33.45;26.38;;;12.30;40.60;;;;;;5069770;28;20039;-71
2022/03/05 12:11:11;;;;;;;42.58;30.05;;;12.30;39.70;;;;;;5070581;28;20044;-74
2022/03/05 12:13:41;;;;;;;40.15;29.52;;;12.40;39.90;;;;;;5069933;28;20036;-72
2022/03/05 12:16:16;;;;;;;41.38;29.45;;;12.30;40.60;;;;;;5066631;28;20135;-74
2022/03/05 12:18:42;;;;;;;41.33;29.35;;;12.10;40.00;;;;;;5071978;28;20488;-72
2022/03/05 12:21:08;;;;;;;42.03;30.92;;;12.10;41.90;;;;;;5071505;28;20032;-71
2022/03/05 12:23:33;;;;;;;42.65;31.27;;;11.90;41.50;;;;;;5070468;28;20043;-71
2022/03/05 12:26:03;;;;;;;40.13;29.80;;;11.90;42.20;;;;;;5068878;28;20036;-72
2022/03/05 12:28:40;;;;;;;40.25;29.67;;;12.00;42.70;;;;;;5068067;28;20483;-73
2022/03/05 12:31:11;;;;;;;44.63;33.90;;;12.10;43.30;;;;;;5074470;28;20067;-73
2022/03/05 12:33:36;;;;;;;43.08;33.70;;;12.20;43.00;;;;;;5077342;28;20489;-71